createdAt,value
2022-08-17T00:00:43.125Z,100079.50
2022-08-17T00:03:17.317Z,100079.77
2022-08-17T00:05:51.245Z,100077.31
2022-08-17T00:08:25.929Z,100081.17
2022-08-17T00:10:55.011Z,100083.74
2022-08-17T00:13:31.060Z,100081.71
2022-08-17T00:16:09.029Z,100079.05
2022-08-17T00:19:01.157Z,100085.87
2022-08-17T00:21:25.611Z,100085.44
2022-08-17T00:23:54.918Z,100085.71
2022-08-17T00:26:34.485Z,100087.57
2022-08-17T00:29:19.541Z,100088.88
2022-08-17T00:31:49.510Z,100087.39
2022-08-17T00:34:18.084Z,100087.27
2022-08-17T00:36:46.013Z,100086.64
2022-08-17T00:39:13.783Z,100083.17
2022-08-17T00:41:42.563Z,100084.77
2022-08-17T00:44:12.158Z,100086.23
2022-08-17T00:46:43.122Z,100083.73
2022-08-17T00:49:13.103Z,100085.77
2022-08-17T00:51:55.034Z,100082.06
2022-08-17T00:54:28.537Z,100080.96
2022-08-17T00:57:12.762Z,100081.91
2022-08-17T01:00:00.591Z,100079.72
2022-08-17T01:02:42.647Z,100083.22
2022-08-17T01:05:27.119Z,100083.34
2022-08-17T01:07:58.812Z,100080.19
2022-08-17T01:10:59.259Z,100081.67
2022-08-17T01:13:42.242Z,100077.73
2022-08-17T01:16:21.700Z,100079.20
2022-08-17T01:18:53.596Z,100076.02
2022-08-17T01:21:46.537Z,100075.98
2022-08-17T01:24:15.310Z,100080.10
2022-08-17T01:26:45.198Z,100079.88
2022-08-17T01:29:13.257Z,100077.31
2022-08-17T01:31:49.286Z,100078.52
2022-08-17T01:34:18.843Z,100079.28
2022-08-17T01:36:49.502Z,100077.15
2022-08-17T01:39:39.040Z,100078.39
2022-08-17T01:42:51.507Z,100078.69
2022-08-17T01:45:33.815Z,100077.48
2022-08-17T01:48:01.604Z,100076.65
2022-08-17T01:50:35.077Z,100076.69
2022-08-17T01:53:12.982Z,100071.54
2022-08-17T01:56:05.577Z,100073.46
2022-08-17T01:58:36.482Z,100072.80
2022-08-17T02:01:06.485Z,100069.57
2022-08-17T02:03:36.994Z,100070.33
2022-08-17T02:06:27.239Z,100071.49
2022-08-17T02:09:02.464Z,100074.14
2022-08-17T02:11:34.788Z,100068.30
2022-08-17T02:14:05.112Z,100071.55
2022-08-17T02:16:37.677Z,100067.29
2022-08-17T02:19:13.648Z,100067.40
2022-08-17T02:21:44.965Z,100064.06
2022-08-17T02:24:59.410Z,100065.95
2022-08-17T02:27:12.742Z,100067.07
2022-08-17T02:29:40.576Z,100064.70
2022-08-17T02:32:27.372Z,100062.25
2022-08-17T02:34:59.974Z,100059.67
2022-08-17T02:37:29.908Z,100059.27
2022-08-17T02:39:59.403Z,100058.74
2022-08-17T02:42:34.109Z,100057.11
2022-08-17T02:45:06.159Z,100059.11
2022-08-17T02:47:34.278Z,100058.58
2022-08-17T02:50:02.382Z,100061.77
2022-08-17T02:52:42.814Z,100061.59
2022-08-17T02:55:22.804Z,100064.70
2022-08-17T02:57:52.523Z,100065.21
2022-08-17T03:00:26.923Z,100058.17
2022-08-17T03:02:56.783Z,100061.66
2022-08-17T03:05:28.827Z,100062.52
2022-08-17T03:07:57.030Z,100067.64
2022-08-17T03:10:25.629Z,100069.11
2022-08-17T03:12:54.368Z,100070.98
2022-08-17T03:15:27.650Z,100071.35
2022-08-17T03:17:57.391Z,100072.28
2022-08-17T03:20:27.749Z,100072.27
2022-08-17T03:23:02.765Z,100070.09
2022-08-17T03:25:39.239Z,100077.94
2022-08-17T03:28:07.732Z,100078.64
2022-08-17T03:30:36.790Z,100081.41
2022-08-17T03:33:10.010Z,100081.23
2022-08-17T03:35:40.540Z,100084.35
2022-08-17T03:38:11.095Z,100085.58
2022-08-17T03:40:56.487Z,100087.73
2022-08-17T03:43:33.010Z,100087.95
2022-08-17T03:46:34.126Z,100088.46
2022-08-17T03:49:25.418Z,100100.86
2022-08-17T03:52:14.934Z,100095.73
2022-08-17T03:55:04.026Z,100098.13
2022-08-17T03:57:32.319Z,100104.94
2022-08-17T04:00:00.077Z,100098.12
2022-08-17T04:02:34.063Z,100099.80
2022-08-17T04:05:01.987Z,100103.27
2022-08-17T04:07:31.575Z,100109.67
2022-08-17T04:10:00.402Z,100111.30
2022-08-17T04:12:31.067Z,100111.20
2022-08-17T04:14:59.700Z,100113.91
2022-08-17T04:17:29.422Z,100108.61
2022-08-17T04:19:57.844Z,100113.13
2022-08-17T04:22:33.070Z,100119.30
2022-08-17T04:25:22.139Z,100121.55
2022-08-17T04:27:50.088Z,100123.77
2022-08-17T04:30:17.835Z,100127.73
2022-08-17T04:33:05.792Z,100125.23
2022-08-17T04:35:59.843Z,100127.50
2022-08-17T04:38:35.947Z,100134.83
2022-08-17T04:41:23.943Z,100127.45
2022-08-17T04:43:56.174Z,100128.13
2022-08-17T04:46:28.851Z,100130.23
2022-08-17T04:48:57.771Z,100131.30
2022-08-17T04:51:33.091Z,100136.27
2022-08-17T04:54:12.457Z,100140.23
2022-08-17T04:56:40.730Z,100142.25
2022-08-17T04:59:17.179Z,100142.46
2022-08-17T05:01:48.924Z,100145.58
2022-08-17T05:04:34.263Z,100147.29
2022-08-17T05:07:04.502Z,100148.37
2022-08-17T05:09:32.586Z,100146.55
2022-08-17T05:12:02.363Z,100147.28
2022-08-17T05:14:32.323Z,100146.36
2022-08-17T05:17:07.081Z,100146.65
2022-08-17T05:19:38.950Z,100148.75
2022-08-17T05:22:06.919Z,100150.15
2022-08-17T05:24:39.173Z,100155.60
2022-08-17T05:27:22.739Z,100151.66
2022-08-17T05:29:51.370Z,100151.13
2022-08-17T05:32:38.880Z,100150.00
2022-08-17T05:35:08.954Z,100149.39
2022-08-17T05:37:36.778Z,100150.87
2022-08-17T05:40:05.952Z,100156.00
2022-08-17T05:42:33.764Z,100160.03
2022-08-17T05:45:01.635Z,100159.98
2022-08-17T05:47:30.374Z,100162.41
2022-08-17T05:49:59.447Z,100164.88
2022-08-17T05:52:50.292Z,100161.45
2022-08-17T05:55:35.657Z,100162.55
2022-08-17T05:58:31.202Z,100161.79
2022-08-17T06:01:35.420Z,100159.77
2022-08-17T06:04:37.460Z,100159.05
2022-08-17T06:07:21.103Z,100156.83
2022-08-17T06:10:24.754Z,100153.36
2022-08-17T06:13:38.827Z,100157.55
2022-08-17T06:16:33.776Z,100158.95
2022-08-17T06:19:25.041Z,100166.19
2022-08-17T06:21:55.044Z,100172.92
2022-08-17T06:24:54.108Z,100174.34
2022-08-17T06:27:41.344Z,100174.96
2022-08-17T06:30:20.360Z,100175.73
2022-08-17T06:32:51.535Z,100174.39
2022-08-17T06:35:40.187Z,100176.85
2022-08-17T06:38:37.157Z,100173.89
2022-08-17T06:41:44.706Z,100178.27
2022-08-17T06:44:42.189Z,100178.22
2022-08-17T06:47:44.801Z,100169.86
2022-08-17T06:50:30.102Z,100168.55
2022-08-17T06:53:23.040Z,100165.48
2022-08-17T06:56:04.574Z,100168.43
2022-08-17T06:58:35.732Z,100178.08
2022-08-17T07:01:16.153Z,100180.35
2022-08-17T07:04:28.135Z,100181.77
2022-08-17T07:07:29.224Z,100183.30
2022-08-17T07:10:00.758Z,100183.62
2022-08-17T07:12:38.437Z,100183.59
2022-08-17T07:15:16.533Z,100187.15
2022-08-17T07:17:48.400Z,100190.49
2022-08-17T07:20:22.373Z,100182.98
2022-08-17T07:23:04.383Z,100186.55
2022-08-17T07:25:33.029Z,100191.56
2022-08-17T07:28:07.075Z,100189.80
2022-08-17T07:30:50.231Z,100190.06
2022-08-17T07:33:24.594Z,100190.75
2022-08-17T07:35:53.629Z,100192.70
2022-08-17T07:38:27.699Z,100200.63
2022-08-17T07:41:01.945Z,100201.10
2022-08-17T07:43:41.785Z,100196.81
2022-08-17T07:46:38.327Z,100195.02
2022-08-17T07:49:09.053Z,100193.86
2022-08-17T07:51:43.844Z,100194.21
2022-08-17T07:54:38.282Z,100195.63
2022-08-17T07:57:14.998Z,100196.23
2022-08-17T08:00:13.482Z,100199.75
2022-08-17T08:02:58.928Z,100198.19
2022-08-17T08:05:49.205Z,100200.29
2022-08-17T08:08:27.983Z,100202.84
2022-08-17T08:11:10.851Z,100196.27
2022-08-17T08:13:43.611Z,100196.89
2022-08-17T08:16:17.490Z,100194.84
2022-08-17T08:18:54.020Z,100196.29
2022-08-17T08:22:00.154Z,100196.06
2022-08-17T08:24:51.600Z,100191.34
2022-08-17T08:27:42.985Z,100190.14
2022-08-17T08:30:21.546Z,100188.40
2022-08-17T08:33:28.858Z,100194.48
2022-08-17T08:37:02.058Z,100193.89
2022-08-17T08:40:08.371Z,100196.08
2022-08-17T08:43:07.152Z,100194.04
2022-08-17T08:45:53.237Z,100195.27
2022-08-17T08:49:12.265Z,100195.38
2022-08-17T08:52:01.831Z,100191.19
2022-08-17T08:54:52.238Z,100187.67
2022-08-17T08:57:40.378Z,100184.43
2022-08-17T09:00:15.902Z,100184.79
2022-08-17T09:03:53.120Z,100187.06
2022-08-17T09:06:38.817Z,100187.61
2022-08-17T09:09:42.422Z,100183.91
2022-08-17T09:12:31.860Z,100177.57
2022-08-17T09:15:27.461Z,100178.77
2022-08-17T09:19:01.263Z,100184.08
2022-08-17T09:21:18.803Z,100180.27
2022-08-17T09:24:02.311Z,100182.23
2022-08-17T09:26:44.311Z,100177.33
2022-08-17T09:29:17.882Z,100177.92
2022-08-17T09:31:59.622Z,100175.65
2022-08-17T09:34:48.387Z,100182.26
2022-08-17T09:37:33.706Z,100175.65
2022-08-17T09:40:15.942Z,100175.09
2022-08-17T09:43:20.448Z,100169.86
2022-08-17T09:45:54.266Z,100170.48
2022-08-17T09:48:50.245Z,100166.16
2022-08-17T09:51:35.996Z,100159.46
2022-08-17T09:54:36.995Z,100155.02
2022-08-17T09:57:29.263Z,100149.83
2022-08-17T10:00:25.159Z,100152.30
2022-08-17T10:03:30.454Z,100154.77
2022-08-17T10:06:22.486Z,100153.71
2022-08-17T10:09:18.433Z,100153.67
2022-08-17T10:12:23.056Z,100151.42
2022-08-17T10:15:17.333Z,100155.15
2022-08-17T10:18:24.493Z,100156.82
2022-08-17T10:21:24.882Z,100155.73
2022-08-17T10:24:24.359Z,100155.17
2022-08-17T10:26:56.372Z,100156.44
2022-08-17T10:29:46.323Z,100152.80
2022-08-17T10:32:33.119Z,100152.52
2022-08-17T10:35:30.596Z,100151.67
2022-08-17T10:38:37.026Z,100152.50
2022-08-17T10:41:30.816Z,100151.09
2022-08-17T10:44:38.144Z,100151.38
2022-08-17T10:47:15.322Z,100154.65
2022-08-17T10:49:54.167Z,100156.89
2022-08-17T10:52:22.721Z,100154.17
2022-08-17T10:54:57.918Z,100157.73
2022-08-17T10:57:26.611Z,100155.92
2022-08-17T10:59:57.232Z,100153.21
2022-08-17T11:02:45.680Z,100149.92
2022-08-17T11:05:43.536Z,100151.66
2022-08-17T11:08:37.747Z,100153.45
2022-08-17T11:11:27.247Z,100157.59
2022-08-17T11:14:25.658Z,100158.77
2022-08-17T11:17:29.981Z,100155.83
2022-08-17T11:21:00.455Z,100156.16
2022-08-17T11:24:11.998Z,100156.38
2022-08-17T11:26:46.902Z,100154.81
2022-08-17T11:29:29.883Z,100154.27
2022-08-17T11:32:27.183Z,100154.20
2022-08-17T11:35:23.155Z,100152.67
2022-08-17T11:38:16.205Z,100140.59
2022-08-17T11:41:18.523Z,100138.55
2022-08-17T11:44:15.318Z,100130.16
2022-08-17T11:47:29.426Z,100127.44
2022-08-17T11:50:41.518Z,100126.30
2022-08-17T11:53:38.608Z,100126.63
2022-08-17T11:56:11.956Z,100123.88
2022-08-17T11:58:43.512Z,100126.17
2022-08-17T12:01:24.466Z,100128.88
2022-08-17T12:04:16.303Z,100128.50
2022-08-17T12:06:52.205Z,100135.65
2022-08-17T12:09:26.374Z,100140.42
2022-08-17T12:12:14.359Z,100139.46
2022-08-17T12:15:12.914Z,100133.23
2022-08-17T12:17:42.868Z,100124.25
2022-08-17T12:20:23.365Z,100124.73
2022-08-17T12:23:13.950Z,100120.66
2022-08-17T12:26:22.706Z,100118.19
2022-08-17T12:28:58.815Z,100120.39
2022-08-17T12:31:44.254Z,100119.55
2022-08-17T12:34:34.953Z,100115.38
2022-08-17T12:37:19.998Z,100116.16
2022-08-17T12:40:06.614Z,100120.54
2022-08-17T12:42:39.319Z,100118.37
2022-08-17T12:45:23.359Z,100117.88
2022-08-17T12:48:04.040Z,100126.05
2022-08-17T12:50:32.580Z,100124.95
2022-08-17T12:53:02.519Z,100132.23
2022-08-17T12:55:36.864Z,100124.52
2022-08-17T12:58:10.939Z,100118.64
2022-08-17T13:00:50.730Z,100114.09
2022-08-17T13:03:24.363Z,100121.11
2022-08-17T13:05:52.074Z,100115.32
2022-08-17T13:08:26.938Z,100116.35
2022-08-17T13:11:10.035Z,100108.39
2022-08-17T13:13:50.630Z,100105.34
2022-08-17T13:16:24.395Z,100104.11
2022-08-17T13:19:40.096Z,100104.96
2022-08-17T13:22:15.389Z,100100.52
2022-08-17T13:25:16.359Z,100104.75
2022-08-17T13:27:46.824Z,100106.33
2022-08-17T13:30:23.995Z,100103.08
2022-08-17T13:32:53.800Z,100094.25
2022-08-17T13:35:47.130Z,100092.08
2022-08-17T13:38:47.125Z,100088.17
2022-08-17T13:41:37.278Z,100084.31
2022-08-17T13:44:40.468Z,100091.49
2022-08-17T13:47:20.395Z,100089.40
2022-08-17T13:49:49.574Z,100087.81
2022-08-17T13:52:39.844Z,100084.71
2022-08-17T13:55:20.062Z,100078.73
2022-08-17T13:58:00.936Z,100078.69
2022-08-17T14:00:36.355Z,100077.54
2022-08-17T14:03:05.635Z,100075.03
2022-08-17T14:05:33.952Z,100079.61
2022-08-17T14:08:06.402Z,100080.60
2022-08-17T14:10:36.428Z,100079.77
2022-08-17T14:13:07.261Z,100076.52
2022-08-17T14:15:54.760Z,100075.64
2022-08-17T14:18:34.266Z,100078.34
2022-08-17T14:21:10.896Z,100076.36
2022-08-17T14:23:38.771Z,100076.98
2022-08-17T14:26:06.779Z,100072.61
2022-08-17T14:28:36.417Z,100069.55
2022-08-17T14:31:08.280Z,100070.16
2022-08-17T14:33:37.600Z,100070.39
2022-08-17T14:36:05.523Z,100066.66
2022-08-17T14:38:37.927Z,100067.98
2022-08-17T14:41:05.968Z,100072.96
2022-08-17T14:43:35.275Z,100076.10
2022-08-17T14:46:03.214Z,100074.86
2022-08-17T14:48:38.307Z,100075.06
2022-08-17T14:51:06.941Z,100071.86
2022-08-17T14:53:34.974Z,100070.01
2022-08-17T14:56:03.492Z,100077.70
2022-08-17T14:58:31.282Z,100078.44
2022-08-17T15:00:59.107Z,100080.53
2022-08-17T15:03:26.950Z,100077.86
2022-08-17T15:05:55.313Z,100079.63
2022-08-17T15:08:23.100Z,100076.58
2022-08-17T15:10:52.552Z,100075.21
2022-08-17T15:13:26.459Z,100072.29
2022-08-17T15:15:54.364Z,100077.35
2022-08-17T15:18:22.423Z,100076.69
2022-08-17T15:20:50.541Z,100071.16
2022-08-17T15:23:21.395Z,100074.29
2022-08-17T15:25:52.514Z,100082.34
2022-08-17T15:28:22.947Z,100087.73
2022-08-17T15:30:53.251Z,100091.10
2022-08-17T15:33:30.147Z,100087.90
2022-08-17T15:36:06.498Z,100082.24
2022-08-17T15:38:39.224Z,100079.60
2022-08-17T15:41:14.936Z,100083.21
2022-08-17T15:43:45.038Z,100077.21
2022-08-17T15:46:23.232Z,100079.54
2022-08-17T15:48:56.519Z,100075.95
2022-08-17T15:51:28.313Z,100077.92
2022-08-17T15:54:00.233Z,100075.73
2022-08-17T15:56:32.696Z,100073.49
2022-08-17T15:59:01.118Z,100076.34
2022-08-17T16:03:05.657Z,100075.73
2022-08-17T16:04:29.747Z,100077.29
2022-08-17T16:07:00.020Z,100080.19
2022-08-17T16:09:27.973Z,100080.31
2022-08-17T16:11:56.416Z,100082.02
2022-08-17T16:14:33.855Z,100078.77
2022-08-17T16:17:05.413Z,100075.58
2022-08-17T16:19:53.187Z,100076.66
2022-08-17T16:22:50.788Z,100081.12
2022-08-17T16:25:38.881Z,100079.06
2022-08-17T16:28:15.277Z,100076.82
2022-08-17T16:30:43.618Z,100080.31
2022-08-17T16:33:12.584Z,100081.48
2022-08-17T16:35:41.975Z,100084.95
2022-08-17T16:38:10.923Z,100084.75
2022-08-17T16:40:38.781Z,100082.52
2022-08-17T16:43:12.045Z,100082.34
2022-08-17T16:45:40.798Z,100085.13
2022-08-17T16:48:09.944Z,100088.01
2022-08-17T16:50:37.893Z,100087.35
2022-08-17T16:53:16.497Z,100088.55
2022-08-17T16:55:46.716Z,100093.48
2022-08-17T16:58:15.500Z,100095.26
2022-08-17T17:00:45.123Z,100094.13
2022-08-17T17:03:26.027Z,100093.21
2022-08-17T17:06:22.353Z,100089.00
2022-08-17T17:09:14.007Z,100089.11
2022-08-17T17:11:47.956Z,100092.84
2022-08-17T17:14:22.783Z,100089.62
2022-08-17T17:17:04.438Z,100087.64
2022-08-17T17:20:02.779Z,100092.98
2022-08-17T17:22:48.022Z,100098.52
2022-08-17T17:25:32.971Z,100102.00
2022-08-17T17:28:24.717Z,100104.86
2022-08-17T17:31:13.898Z,100106.05
2022-08-17T17:33:50.341Z,100106.60
2022-08-17T17:36:38.104Z,100104.98
2022-08-17T17:39:43.719Z,100104.94
2022-08-17T17:42:24.615Z,100102.36
2022-08-17T17:45:22.079Z,100096.80
2022-08-17T17:47:50.282Z,100099.65
2022-08-17T17:50:29.316Z,100099.04
2022-08-17T17:53:14.960Z,100100.83
2022-08-17T17:56:21.067Z,100099.77
2022-08-17T17:59:06.537Z,100098.70
2022-08-17T18:01:46.709Z,100100.85
2022-08-17T18:04:31.158Z,100103.21
2022-08-17T18:07:11.157Z,100109.25
2022-08-17T18:10:19.797Z,100115.05
2022-08-17T18:13:30.419Z,100120.41
2022-08-17T18:16:01.065Z,100121.63
2022-08-17T18:18:40.760Z,100123.92
2022-08-17T18:21:16.395Z,100127.01
2022-08-17T18:23:56.822Z,100124.88
2022-08-17T18:26:39.394Z,100127.14
2022-08-17T18:29:34.272Z,100128.77
2022-08-17T18:32:31.350Z,100127.86
2022-08-17T18:35:11.161Z,100121.53
2022-08-17T18:37:47.831Z,100126.00
2022-08-17T18:40:19.373Z,100126.98
2022-08-17T18:42:50.076Z,100128.33
2022-08-17T18:45:45.668Z,100125.65
2022-08-17T18:48:29.078Z,100125.35
2022-08-17T18:51:42.317Z,100121.79
2022-08-17T18:54:24.258Z,100119.41
2022-08-17T18:56:59.339Z,100117.00
2022-08-17T18:59:41.125Z,100121.38
2022-08-17T19:02:22.078Z,100126.78
2022-08-17T19:05:07.943Z,100131.51
2022-08-17T19:07:48.073Z,100133.80
2022-08-17T19:10:46.114Z,100133.26
2022-08-17T19:13:25.688Z,100134.55
2022-08-17T19:16:14.458Z,100141.70
2022-08-17T19:19:26.680Z,100152.01
2022-08-17T19:21:59.041Z,100149.20
2022-08-17T19:24:30.322Z,100151.58
2022-08-17T19:27:21.685Z,100152.67
2022-08-17T19:30:02.775Z,100156.08
2022-08-17T19:32:36.129Z,100156.84
2022-08-17T19:35:07.562Z,100152.46
2022-08-17T19:38:04.610Z,100156.69
2022-08-17T19:41:11.786Z,100157.92
2022-08-17T19:43:59.778Z,100156.88
2022-08-17T19:47:01.490Z,100161.84
2022-08-17T19:49:58.751Z,100167.89
2022-08-17T19:53:12.359Z,100179.02
2022-08-17T19:56:36.898Z,100177.52
2022-08-17T19:59:15.661Z,100176.95
2022-08-17T20:02:20.195Z,100180.40
2022-08-17T20:04:52.499Z,100177.56
2022-08-17T20:07:29.032Z,100174.94
2022-08-17T20:10:13.580Z,100173.11
2022-08-17T20:12:44.096Z,100172.30
2022-08-17T20:15:28.502Z,100177.84
2022-08-17T20:18:05.893Z,100176.46
2022-08-17T20:20:54.932Z,100169.15
2022-08-17T20:23:48.760Z,100178.05
2022-08-17T20:26:58.962Z,100176.41
2022-08-17T20:29:54.967Z,100160.52
2022-08-17T20:32:30.923Z,100175.87
2022-08-17T20:35:19.723Z,100176.56
2022-08-17T20:38:32.731Z,100181.17
2022-08-17T20:41:01.087Z,100180.16
2022-08-17T20:43:48.890Z,100173.11
2022-08-17T20:46:38.351Z,100166.11
2022-08-17T20:49:08.820Z,100166.22
2022-08-17T20:52:00.633Z,100167.71
2022-08-17T20:54:48.795Z,100172.39
2022-08-17T20:57:32.004Z,100174.34
2022-08-17T21:00:41.428Z,100171.10
2022-08-17T21:03:24.185Z,100168.78
2022-08-17T21:06:17.130Z,100170.87
2022-08-17T21:09:29.904Z,100168.21
2022-08-17T21:12:04.967Z,100171.63
2022-08-17T21:14:59.947Z,100169.84
2022-08-17T21:17:49.682Z,100170.17
2022-08-17T21:20:39.552Z,100177.77
2022-08-17T21:23:24.520Z,100176.77
2022-08-17T21:26:29.682Z,100177.79
2022-08-17T21:29:31.066Z,100176.74
2022-08-17T21:32:03.333Z,100179.45
2022-08-17T21:34:38.912Z,100181.27
2022-08-17T21:37:18.794Z,100179.48
2022-08-17T21:40:09.722Z,100179.13
2022-08-17T21:42:47.726Z,100185.11
2022-08-17T21:45:38.012Z,100179.10
2022-08-17T21:48:21.185Z,100177.23
2022-08-17T21:51:19.708Z,100180.73
2022-08-17T21:53:55.802Z,100184.20
2022-08-17T21:56:36.352Z,100183.59
2022-08-17T21:59:27.327Z,100184.36
2022-08-17T22:02:02.627Z,100185.27
2022-08-17T22:04:40.341Z,100182.67
2022-08-17T22:07:13.159Z,100183.10
2022-08-17T22:09:47.099Z,100180.89
2022-08-17T22:12:24.278Z,100179.36
2022-08-17T22:15:07.359Z,100178.16
2022-08-17T22:17:44.986Z,100178.73
2022-08-17T22:20:19.981Z,100177.19
2022-08-17T22:23:12.559Z,100171.20
2022-08-17T22:26:00.150Z,100171.09
2022-08-17T22:28:52.338Z,100173.92
2022-08-17T22:31:27.129Z,100173.83
2022-08-17T22:33:57.812Z,100172.52
2022-08-17T22:36:31.050Z,100173.64
2022-08-17T22:39:26.339Z,100172.20
2022-08-17T22:42:00.633Z,100177.48
2022-08-17T22:44:44.828Z,100178.23
2022-08-17T22:47:16.351Z,100176.03
2022-08-17T22:49:58.302Z,100174.13
2022-08-17T22:52:34.395Z,100180.56
2022-08-17T22:55:32.838Z,100184.98
2022-08-17T22:58:20.515Z,100193.20
2022-08-17T23:00:49.563Z,100199.27
2022-08-17T23:03:25.070Z,100197.80
2022-08-17T23:06:08.189Z,100201.33
2022-08-17T23:08:54.798Z,100204.98
2022-08-17T23:11:36.556Z,100203.39
2022-08-17T23:14:18.375Z,100205.70
2022-08-17T23:16:50.934Z,100206.84
2022-08-17T23:19:21.195Z,100205.70
2022-08-17T23:21:55.274Z,100202.98
2022-08-17T23:24:29.091Z,100203.45
2022-08-17T23:26:58.035Z,100202.20
2022-08-17T23:29:29.330Z,100198.91
2022-08-17T23:31:59.846Z,100197.92
2022-08-17T23:34:28.555Z,100202.93
2022-08-17T23:36:56.543Z,100211.27
2022-08-17T23:39:28.016Z,100210.56
2022-08-17T23:41:59.175Z,100210.75
2022-08-17T23:44:28.797Z,100205.38
2022-08-17T23:46:57.087Z,100203.65
2022-08-17T23:49:25.325Z,100198.09
2022-08-17T23:51:56.525Z,100203.77
2022-08-17T23:54:43.825Z,100204.48
2022-08-17T23:57:16.859Z,100205.44
2022-08-17T23:59:45.307Z,100201.67
